Time;durP1;ratioP1;P1;durP2;ratioP2;P2;SDS_P1;SDS_P2;PMS_P1;PMS_P2;Temp;Humidity;BMP_temperature;BMP_pressure;BME280_temperature;BME280_humidity;BME280_pressure;Samples;Min_cycle;Max_cycle;Signal;HPM_P1;HPM_P2
2021/07/02 00:00:58;;;;;;;8.03;4.40;;;;;;;27.49;64.33;100949.56;1668067;85;21520;-55
2021/07/02 00:03:25;;;;;;;8.75;4.42;;;;;;;27.46;64.20;100947.16;1696445;83;21072;-55
2021/07/02 00:05:52;;;;;;;10.88;5.28;;;;;;;27.46;64.20;100947.16;1718838;83;21025;-60
2021/07/02 00:08:25;;;;;;;7.92;4.20;;;;;;;27.41;64.71;100946.73;1709523;83;21596;-54
2021/07/02 00:10:49;;;;;;;7.58;4.53;;;;;;;27.41;64.71;100946.73;1710657;84;21570;-55
2021/07/02 00:13:15;;;;;;;8.33;4.72;;;;;;;27.39;64.74;100941.02;1689573;83;21073;-54
2021/07/02 00:15:42;;;;;;;8.25;4.92;;;;;;;27.42;64.83;100943.06;1697236;84;21522;-55
2021/07/02 00:18:10;;;;;;;8.08;4.35;;;;;;;27.44;64.79;100939.77;1701673;83;21085;-53
2021/07/02 00:20:37;;;;;;;11.73;5.78;;;;;;;27.45;65.15;100924.09;1685787;83;21508;-55
2021/07/02 00:23:05;;;;;;;7.97;5.55;;;;;;;27.45;65.15;100924.09;1703436;83;21023;-55
2021/07/02 00:25:32;;;;;;;8.35;4.70;;;;;;;27.47;64.95;100920.28;1701489;83;21062;-54
2021/07/02 00:27:59;;;;;;;9.18;4.87;;;;;;;27.48;65.18;100914.45;1689795;83;21566;-54
2021/07/02 00:30:25;;;;;;;8.60;5.15;;;;;;;27.48;65.18;100914.45;1687166;83;21044;-54
2021/07/02 00:32:52;;;;;;;10.18;5.60;;;;;;;27.46;65.32;100915.94;1701910;83;21033;-58
2021/07/02 00:35:19;;;;;;;9.85;5.90;;;;;;;27.47;65.45;100914.11;1690659;82;21075;-55
2021/07/02 00:37:45;;;;;;;13.50;6.75;;;;;;;27.50;65.58;100911.15;1694002;84;21505;-55
2021/07/02 00:40:14;;;;;;;13.70;6.17;;;;;;;27.50;65.58;100911.15;1685928;83;21096;-54
2021/07/02 00:42:41;;;;;;;14.20;6.80;;;;;;;27.50;65.42;100901.80;1686611;84;21069;-55
2021/07/02 00:45:10;;;;;;;11.60;6.28;;;;;;;27.51;65.38;100900.34;1685866;84;21030;-55
2021/07/02 00:47:37;;;;;;;12.15;6.08;;;;;;;27.55;65.27;100893.73;1637341;86;21545;-55
2021/07/02 00:50:05;;;;;;;14.75;6.28;;;;;;;27.55;65.27;100893.73;1684121;85;21066;-60
2021/07/02 00:52:32;;;;;;;11.65;6.92;;;;;;;27.59;65.09;100892.95;1684375;85;21022;-53
2021/07/02 00:55:00;;;;;;;10.48;5.55;;;;;;;27.62;65.06;100890.84;1685421;85;21116;-54
2021/07/02 00:57:27;;;;;;;9.60;6.00;;;;;;;27.62;65.06;100890.84;1686560;83;21530;-56
2021/07/02 00:59:54;;;;;;;7.42;5.35;;;;;;;27.62;64.86;100896.67;1702564;83;22094;-54
2021/07/02 01:02:22;;;;;;;14.33;7.65;;;;;;;27.61;64.74;100907.03;1691254;83;20986;-54
2021/07/02 01:04:49;;;;;;;10.25;5.78;;;;;;;27.60;64.57;100905.33;1710493;83;21085;-53
2021/07/02 01:07:16;;;;;;;11.78;6.50;;;;;;;27.60;64.57;100905.33;1700540;83;21053;-54
2021/07/02 01:09:45;;;;;;;8.63;5.28;;;;;;;27.60;64.63;100913.34;1692337;84;21042;-54
2021/07/02 01:12:13;;;;;;;11.00;5.30;;;;;;;27.57;64.55;100904.28;1695498;83;21105;-54
2021/07/02 01:14:42;;;;;;;5.28;4.67;;;;;;;27.57;64.55;100904.28;1687336;85;21061;-53
2021/07/02 01:17:10;;;;;;;8.18;5.58;;;;;;;27.56;64.62;100900.75;1662272;83;21052;-54
2021/07/02 01:19:48;;;;;;;8.60;5.05;;;;;;;27.52;64.89;100894.48;1665999;85;21086;-53
2021/07/02 01:22:25;;;;;;;11.55;5.30;;;;;;;27.54;64.75;100895.19;1580906;90;21021;-54
2021/07/02 01:24:54;;;;;;;10.43;5.47;;;;;;;27.52;64.77;100882.45;1580898;89;21456;-58
2021/07/02 01:27:21;;;;;;;10.63;5.67;;;;;;;27.49;64.87;100866.71;1637493;86;21029;-54
2021/07/02 01:29:48;;;;;;;12.50;5.45;;;;;;;27.50;64.92;100856.36;1581158;89;21139;-54
2021/07/02 01:32:16;;;;;;;7.47;5.08;;;;;;;27.47;65.00;100847.30;1616058;87;21132;-54
2021/07/02 01:34:44;;;;;;;11.05;5.08;;;;;;;27.48;65.02;100840.95;1621227;87;21171;-53
2021/07/02 01:37:12;;;;;;;9.85;5.62;;;;;;;27.48;64.95;100831.59;1582775;89;21061;-54
2021/07/02 01:39:39;;;;;;;11.95;5.30;;;;;;;27.48;64.95;100831.59;1608333;88;21649;-55
2021/07/02 01:42:10;;;;;;;7.20;5.67;;;;;;;27.49;65.15;100834.64;1613178;88;21105;-57
2021/07/02 01:44:40;;;;;;;12.50;5.83;;;;;;;27.44;65.01;100835.53;1611577;88;21128;-54
2021/07/02 01:47:08;;;;;;;13.75;6.17;;;;;;;27.47;65.00;100839.28;1586468;89;21056;-53
2021/07/02 01:49:37;;;;;;;11.80;6.25;;;;;;;27.47;65.10;100833.93;1572687;90;21102;-54
2021/07/02 01:52:04;;;;;;;12.65;6.00;;;;;;;27.46;65.32;100829.55;1578295;90;21074;-53
2021/07/02 01:54:32;;;;;;;12.45;5.78;;;;;;;27.45;65.41;100831.89;1557067;91;21082;-54
2021/07/02 01:57:00;;;;;;;12.68;5.97;;;;;;;27.45;65.41;100831.89;1562275;91;21110;-54
2021/07/02 01:59:30;;;;;;;9.43;5.62;;;;;;;27.47;65.65;100828.59;1595450;88;21061;-53
2021/07/02 02:01:58;;;;;;;7.25;5.25;;;;;;;27.44;65.76;100822.17;1616818;88;21085;-58
2021/07/02 02:04:25;;;;;;;14.25;7.03;;;;;;;27.45;65.84;100830.55;1610688;88;21164;-56
2021/07/02 02:06:53;;;;;;;12.45;6.15;;;;;;;27.46;65.81;100826.87;1613307;88;21084;-54
2021/07/02 02:09:20;;;;;;;11.28;5.83;;;;;;;27.44;65.98;100818.16;1621589;87;21053;-54
2021/07/02 02:11:49;;;;;;;9.10;5.30;;;;;;;27.44;66.12;100816.34;1612486;88;21033;-54
2021/07/02 02:14:18;;;;;;;7.60;5.70;;;;;;;27.43;66.38;100825.84;1590934;89;21042;-61
2021/07/02 02:16:46;;;;;;;8.15;5.50;;;;;;;27.43;66.38;100825.84;1618157;88;21078;-54
2021/07/02 02:19:16;;;;;;;8.75;5.28;;;;;;;27.42;66.17;100822.80;1669690;82;21046;-54
2021/07/02 02:21:42;;;;;;;10.08;5.75;;;;;;;27.47;66.08;100831.26;1688766;84;21029;-54
2021/07/02 02:24:09;;;;;;;7.05;5.25;;;;;;;27.47;66.08;100831.26;1707652;83;21059;-54
2021/07/02 02:26:38;;;;;;;10.53;5.85;;;;;;;27.46;66.12;100826.87;1692184;83;21090;-54
2021/07/02 02:29:05;;;;;;;6.33;5.28;;;;;;;27.45;66.35;100811.84;1699611;83;21530;-54
2021/07/02 02:31:32;;;;;;;5.78;4.70;;;;;;;27.45;66.35;100811.84;1698966;82;21074;-60
2021/07/02 02:34:01;;;;;;;6.40;4.85;;;;;;;27.48;66.25;100818.23;1693552;83;21038;-54
2021/07/02 02:36:28;;;;;;;8.20;5.28;;;;;;;27.48;66.27;100816.89;1700172;83;21074;-54
2021/07/02 02:38:55;;;;;;;7.60;5.05;;;;;;;27.49;66.32;100829.29;1697462;83;21074;-59
2021/07/02 02:41:22;;;;;;;6.30;5.20;;;;;;;27.49;66.41;100831.97;1706752;83;21108;-54
2021/07/02 02:43:49;;;;;;;9.20;5.97;;;;;;;27.49;66.49;100834.64;1703785;82;21518;-54
2021/07/02 02:46:16;;;;;;;6.75;5.37;;;;;;;27.51;66.57;100835.34;1701989;83;21483;-61
2021/07/02 02:48:44;;;;;;;6.97;4.78;;;;;;;27.52;66.56;100830.33;1692680;83;21077;-54
2021/07/02 02:51:11;;;;;;;7.55;5.37;;;;;;;27.59;66.57;100846.18;1703568;83;21045;-54
2021/07/02 02:53:38;;;;;;;10.68;5.87;;;;;;;27.59;66.57;100846.18;1690483;82;21042;-59
2021/07/02 02:56:05;;;;;;;8.10;5.80;;;;;;;27.65;66.44;100845.61;1702303;83;21104;-54
2021/07/02 02:58:33;;;;;;;10.10;5.70;;;;;;;27.65;66.44;100845.61;1694734;83;21009;-54
2021/07/02 03:01:01;;;;;;;6.25;5.45;;;;;;;27.67;66.64;100848.99;1697625;82;21112;-54
2021/07/02 03:03:27;;;;;;;11.70;5.87;;;;;;;27.70;66.64;100848.73;1691625;83;21060;-54
2021/07/02 03:05:54;;;;;;;9.98;6.12;;;;;;;27.71;66.66;100854.41;1699835;83;21061;-55
2021/07/02 03:08:22;;;;;;;10.75;6.20;;;;;;;27.76;66.66;100865.55;1694258;83;21545;-57
2021/07/02 03:10:50;;;;;;;10.23;5.60;;;;;;;27.84;66.36;100860.33;1689266;83;21517;-55
2021/07/02 03:13:17;;;;;;;7.15;5.17;;;;;;;27.86;66.34;100865.87;1695078;83;21022;-54
2021/07/02 03:15:44;;;;;;;6.17;5.53;;;;;;;27.86;66.34;100865.87;1689969;83;21537;-56
2021/07/02 03:18:11;;;;;;;10.28;6.20;;;;;;;27.89;66.11;100871.44;1715451;83;21125;-55
2021/07/02 03:20:38;;;;;;;10.58;5.90;;;;;;;27.90;65.98;100871.80;1699189;82;21565;-54
2021/07/02 03:23:05;;;;;;;10.25;6.00;;;;;;;27.90;65.91;100873.14;1685357;84;21517;-57
2021/07/02 03:25:34;;;;;;;11.00;5.70;;;;;;;27.93;65.99;100875.52;1697843;83;21006;-54
2021/07/02 03:28:04;;;;;;;10.10;6.30;;;;;;;27.94;65.66;100872.72;1713910;83;21034;-54
2021/07/02 03:30:31;;;;;;;10.43;6.65;;;;;;;27.91;65.79;100873.48;1690492;84;21045;-54
2021/07/02 03:32:58;;;;;;;9.50;5.17;;;;;;;27.92;65.84;100868.49;1692091;82;21018;-54
2021/07/02 03:35:24;;;;;;;13.05;6.87;;;;;;;27.92;65.78;100857.80;1695138;83;21021;-54
2021/07/02 03:37:51;;;;;;;10.68;6.70;;;;;;;27.93;65.62;100852.30;1690025;84;21014;-54
2021/07/02 03:40:19;;;;;;;9.10;5.92;;;;;;;27.94;65.60;100846.46;1677736;85;21069;-55
2021/07/02 03:42:47;;;;;;;10.45;7.03;;;;;;;27.92;65.67;100848.44;1682147;83;21088;-54
2021/07/02 03:45:14;;;;;;;9.58;5.85;;;;;;;27.92;65.69;100847.95;1696622;83;21572;-54
2021/07/02 03:47:42;;;;;;;8.00;5.95;;;;;;;27.93;65.69;100844.76;1715600;83;21054;-55
2021/07/02 03:50:10;;;;;;;11.38;5.47;;;;;;;27.93;65.64;100839.41;1718167;83;21498;-54
2021/07/02 03:52:37;;;;;;;9.48;6.08;;;;;;;27.94;65.62;100845.12;1692310;83;21586;-54
2021/07/02 03:55:06;;;;;;;9.68;5.62;;;;;;;27.94;65.56;100851.81;1690605;83;21049;-53
2021/07/02 03:57:32;;;;;;;7.65;5.42;;;;;;;27.94;65.62;100846.46;1710876;83;21482;-54
2021/07/02 03:59:59;;;;;;;7.92;5.58;;;;;;;27.94;65.51;100841.11;1715041;81;21098;-54
2021/07/02 04:02:29;;;;;;;15.25;5.65;;;;;;;27.93;65.54;100846.09;1700903;82;21022;-54
2021/07/02 04:04:55;;;;;;;10.65;5.97;;;;;;;27.92;65.92;100840.41;1722364;82;21007;-55
2021/07/02 04:07:24;;;;;;;8.63;6.37;;;;;;;27.95;65.81;100846.31;1711790;82;21006;-55
2021/07/02 04:09:51;;;;;;;12.35;6.37;;;;;;;28.00;65.99;100843.25;1701197;82;22591;-61
2021/07/02 04:12:19;;;;;;;14.35;7.28;;;;;;;28.05;65.80;100857.02;1721136;82;21057;-55
2021/07/02 04:14:45;;;;;;;21.40;17.45;;;;;;;28.05;65.60;100865.91;1693977;84;21581;-55
2021/07/02 04:17:14;;;;;;;30.17;24.75;;;;;;;28.08;65.57;100868.31;1699708;83;21015;-55
2021/07/02 04:19:40;;;;;;;15.83;14.28;;;;;;;28.13;65.51;100871.90;1692040;83;21094;-56
2021/07/02 04:22:08;;;;;;;7.55;6.85;;;;;;;28.17;65.42;100864.76;1707801;81;21038;-58
2021/07/02 04:24:35;;;;;;;10.00;6.37;;;;;;;28.22;65.48;100853.63;1699232;83;21093;-55
2021/07/02 04:27:04;;;;;;;7.50;4.95;;;;;;;28.25;65.01;100833.28;1694143;83;21480;-57
2021/07/02 04:29:31;;;;;;;40.73;6.67;;;;;;;28.28;64.83;100812.91;1712450;82;20998;-57
2021/07/02 04:31:58;;;;;;;10.32;5.20;;;;;;;28.30;64.70;100794.88;1727362;82;21616;-56
2021/07/02 04:34:25;;;;;;;7.60;5.05;;;;;;;28.30;64.78;100781.49;1721637;82;20979;-58
2021/07/02 04:36:51;;;;;;;9.08;5.17;;;;;;;28.28;64.89;100767.42;1707403;82;21042;-55
2021/07/02 04:39:21;;;;;;;5.87;5.15;;;;;;;28.25;65.08;100746.31;1700975;83;21498;-55
2021/07/02 04:41:47;;;;;;;6.78;5.15;;;;;;;28.24;65.26;100744.62;1645449;83;21088;-59
2021/07/02 04:44:15;;;;;;;6.15;4.85;;;;;;;28.23;65.44;100737.59;1657820;85;21100;-56
2021/07/02 04:46:43;;;;;;;6.47;4.90;;;;;;;28.23;65.66;100714.85;1643327;83;21111;-55
2021/07/02 04:49:10;;;;;;;7.17;5.08;;;;;;;28.24;65.76;100707.16;1641087;84;21511;-54
2021/07/02 04:51:38;;;;;;;7.80;5.58;;;;;;;28.28;65.88;100701.00;1677266;83;21044;-62
2021/07/02 04:54:05;;;;;;;7.10;4.17;;;;;;;28.32;65.91;100724.66;1709153;80;20963;-54
2021/07/02 04:56:31;;;;;;;6.80;5.00;;;;;;;28.37;65.76;100733.09;1716929;82;21545;-57
2021/07/02 04:59:00;;;;;;;6.05;4.60;;;;;;;28.38;65.46;100742.80;1711402;83;21050;-55
2021/07/02 05:01:27;;;;;;;6.65;5.12;;;;;;;28.40;65.58;100746.17;1689876;84;21073;-60
2021/07/02 05:03:54;;;;;;;10.45;5.55;;;;;;;28.43;65.64;100743.70;1715540;82;21565;-57
2021/07/02 05:06:21;;;;;;;7.10;5.17;;;;;;;28.44;65.60;100749.41;1709906;82;21050;-57
2021/07/02 05:08:49;;;;;;;5.75;4.67;;;;;;;28.46;65.31;100760.30;1719797;82;21045;-57
2021/07/02 05:11:16;;;;;;;6.97;4.83;;;;;;;28.49;65.18;100770.73;1715608;82;21042;-55
2021/07/02 05:13:42;;;;;;;7.30;5.10;;;;;;;28.47;65.08;100784.75;1724284;82;21014;-56
2021/07/02 05:16:09;;;;;;;5.60;4.60;;;;;;;28.48;64.94;100785.09;1703239;82;21070;-58
2021/07/02 05:18:36;;;;;;;5.80;4.80;;;;;;;28.48;64.85;100787.77;1728893;82;21541;-58
2021/07/02 05:21:04;;;;;;;9.50;5.30;;;;;;;28.49;64.76;100808.69;1723206;81;20984;-58
2021/07/02 05:23:31;;;;;;;6.25;4.60;;;;;;;28.50;64.72;100819.24;1730523;82;21006;-56
2021/07/02 05:25:59;;;;;;;6.62;4.90;;;;;;;28.54;64.35;100834.02;1737139;81;21097;-60
2021/07/02 05:28:25;;;;;;;4.92;4.40;;;;;;;28.56;64.01;100838.80;1723439;81;21128;-55
2021/07/02 05:30:52;;;;;;;5.60;3.80;;;;;;;28.60;63.89;100834.84;1701553;82;20979;-60
2021/07/02 05:33:19;;;;;;;14.13;8.08;;;;;;;28.65;63.76;100824.52;1694684;83;21062;-59
2021/07/02 05:35:46;;;;;;;10.53;7.25;;;;;;;28.74;63.88;100818.28;1728569;81;21057;-55
2021/07/02 05:38:13;;;;;;;9.70;4.60;;;;;;;28.85;64.11;100823.42;1706575;81;21050;-60
2021/07/02 05:40:39;;;;;;;4.92;4.00;;;;;;;28.97;63.58;100832.95;1741517;81;21537;-55
2021/07/02 05:43:06;;;;;;;10.70;5.60;;;;;;;29.08;63.04;100849.84;1722993;82;22160;-56
2021/07/02 05:45:34;;;;;;;10.95;5.78;;;;;;;29.16;62.83;100851.31;1706407;82;20987;-55
2021/07/02 05:48:02;;;;;;;10.72;5.65;;;;;;;29.22;62.53;100844.01;1692131;83;21555;-55
2021/07/02 05:50:29;;;;;;;6.58;3.98;;;;;;;29.28;62.37;100851.45;1727984;81;21542;-56
2021/07/02 05:52:56;;;;;;;10.58;4.35;;;;;;;29.31;62.18;100852.47;1724414;82;21010;-57
2021/07/02 05:55:24;;;;;;;5.60;3.75;;;;;;;29.33;61.91;100857.17;1724579;81;21026;-55
2021/07/02 05:57:51;;;;;;;5.40;3.85;;;;;;;29.33;61.70;100843.77;1704692;82;21006;-57
2021/07/02 06:00:19;;;;;;;5.80;3.87;;;;;;;29.32;61.35;100844.30;1712490;82;21203;-56
2021/07/02 06:02:46;;;;;;;5.45;4.00;;;;;;;29.29;61.30;100845.07;1713250;82;21034;-55
2021/07/02 06:05:13;;;;;;;6.05;4.62;;;;;;;29.29;61.33;100850.44;1743175;81;21050;-59
2021/07/02 06:07:51;;;;;;;7.15;5.58;;;;;;;29.27;61.29;100857.78;1715008;82;21042;-56
2021/07/02 06:10:21;;;;;;;11.25;7.75;;;;;;;29.27;61.28;100875.20;1655438;85;21045;-59
2021/07/02 06:12:48;;;;;;;37.70;32.73;;;;;;;29.26;61.32;100878.89;1647054;86;21006;-58
2021/07/02 06:15:18;;;;;;;14.58;13.13;;;;;;;29.25;61.37;100881.20;1646598;85;21041;-58
2021/07/02 06:17:46;;;;;;;7.22;5.83;;;;;;;29.22;61.43;100884.20;1618236;86;21706;-56
2021/07/02 06:20:14;;;;;;;7.47;5.45;;;;;;;29.19;61.54;100881.81;1621173;86;21049;-57
2021/07/02 06:22:41;;;;;;;9.75;5.08;;;;;;;29.18;61.64;100878.80;1654924;85;22257;-56
2021/07/02 06:25:10;;;;;;;12.65;9.33;;;;;;;29.15;61.81;100881.27;1660551;84;21574;-57
2021/07/02 06:27:37;;;;;;;8.68;7.40;;;;;;;29.16;61.85;100879.45;1642633;85;21989;-57
2021/07/02 06:30:05;;;;;;;24.15;21.33;;;;;;;29.15;61.57;100874.58;1625867;86;21056;-58
2021/07/02 06:32:32;;;;;;;13.85;9.88;;;;;;;29.15;61.81;100883.95;1630979;86;21561;-57
2021/07/02 06:34:59;;;;;;;35.52;31.65;;;;;;;29.16;61.91;100886.15;1623357;85;21552;-58
2021/07/02 06:37:26;;;;;;;25.85;23.20;;;;;;;29.18;61.83;100884.16;1637203;86;21113;-54
2021/07/02 06:39:53;;;;;;;10.72;8.18;;;;;;;29.20;61.91;100887.53;1631490;86;21049;-55
2021/07/02 06:42:19;;;;;;;9.65;8.75;;;;;;;29.21;61.92;100893.22;1631911;84;21038;-57
2021/07/02 06:44:46;;;;;;;9.43;7.67;;;;;;;29.23;61.50;100888.07;1601958;88;21049;-56
2021/07/02 06:47:13;;;;;;;6.67;5.62;;;;;;;29.24;61.26;100885.75;1643914;86;21589;-58
2021/07/02 06:49:40;;;;;;;5.67;4.58;;;;;;;29.25;61.31;100883.89;1621390;88;21522;-57
2021/07/02 06:52:07;;;;;;;5.92;4.90;;;;;;;29.27;61.25;100876.55;1611534;88;21601;-56
2021/07/02 06:54:35;;;;;;;7.85;4.95;;;;;;;29.29;61.22;100874.55;1605668;88;21098;-56
2021/07/02 06:57:04;;;;;;;6.37;4.65;;;;;;;29.31;61.11;100868.55;1595364;88;21593;-57
2021/07/02 06:59:40;;;;;;;7.05;6.17;;;;;;;29.32;61.02;100869.76;1601232;86;21112;-57
2021/07/02 07:02:10;;;;;;;11.38;8.40;;;;;;;29.34;60.90;100877.16;1570633;90;21136;-56
2021/07/02 07:04:37;;;;;;;10.15;8.88;;;;;;;29.34;60.75;100883.00;1593674;88;21077;-55
2021/07/02 07:07:08;;;;;;;12.37;9.30;;;;;;;29.31;60.60;100883.29;1582899;88;21559;-56
2021/07/02 07:09:36;;;;;;;12.18;8.28;;;;;;;29.30;60.50;100878.94;1584908;88;21094;-55
2021/07/02 07:12:04;;;;;;;10.20;8.08;;;;;;;29.27;60.67;100884.58;1555122;90;21105;-58
2021/07/02 07:14:31;;;;;;;7.15;6.22;;;;;;;29.24;60.77;100879.54;1584943;87;21048;-56
2021/07/02 07:17:01;;;;;;;7.45;6.35;;;;;;;29.21;60.90;100877.14;1576957;87;21046;-57
2021/07/02 07:19:29;;;;;;;6.90;5.72;;;;;;;29.18;61.40;100872.10;1589285;88;21598;-56
2021/07/02 07:21:57;;;;;;;6.90;5.55;;;;;;;29.14;61.76;100873.36;1594543;88;21090;-56
2021/07/02 07:24:24;;;;;;;5.85;2.45;;;;;;;29.09;61.68;100878.31;1578979;87;21116;-56
2021/07/02 07:26:50;;;;;;;2.85;2.05;;;;;;;29.03;58.50;100890.47;1578956;88;21146;-54
2021/07/02 07:29:18;;;;;;;6.25;2.05;;;;;;;28.90;54.59;100901.52;1586401;89;21050;-59
2021/07/02 07:31:44;;;;;;;11.55;3.52;;;;;;;28.77;53.38;100917.06;1586790;88;21061;-60
2021/07/02 07:34:11;;;;;;;24.02;5.72;;;;;;;28.64;53.24;100934.45;1600675;88;21127;-55
2021/07/02 07:36:38;;;;;;;11.63;3.12;;;;;;;28.49;54.15;100907.25;1577947;88;21539;-58
2021/07/02 07:39:05;;;;;;;13.20;3.65;;;;;;;28.32;54.66;100878.53;1566378;89;21184;-55
2021/07/02 07:41:32;;;;;;;11.35;3.47;;;;;;;28.13;55.43;100870.56;1572023;89;21640;-56
2021/07/02 07:44:00;;;;;;;12.37;3.80;;;;;;;27.96;56.21;100864.09;1591612;87;21600;-55
2021/07/02 07:46:28;;;;;;;5.72;2.80;;;;;;;27.84;56.73;100848.30;1599016;88;21095;-56
2021/07/02 07:48:56;;;;;;;10.18;2.62;;;;;;;27.78;57.16;100840.84;1551163;90;21069;-54
2021/07/02 07:53:53;;;;;;;6.33;2.40;;;;;;;27.66;57.29;100836.59;1584070;89;21079;-55
2021/07/02 07:56:20;;;;;;;6.75;3.02;;;;;;;27.60;58.03;100825.12;1566898;90;21551;-58
2021/07/02 07:58:47;;;;;;;4.67;2.30;;;;;;;27.58;58.82;100813.73;1592540;86;21244;-59
2021/07/02 08:01:14;;;;;;;3.83;2.33;;;;;;;27.50;59.34;100798.89;1647904;83;21069;-57
2021/07/02 08:03:41;;;;;;;4.72;2.25;;;;;;;27.46;60.26;100794.81;1701922;81;21093;-55
2021/07/02 08:06:08;;;;;;;3.90;2.15;;;;;;;27.46;60.26;100794.81;1712420;82;20971;-56
2021/07/02 08:08:35;;;;;;;3.62;2.45;;;;;;;27.43;60.71;100801.79;1727953;81;21105;-55
2021/07/02 08:11:02;;;;;;;4.45;2.72;;;;;;;27.39;61.06;100802.54;1696029;83;21051;-56
2021/07/02 08:13:29;;;;;;;4.95;3.05;;;;;;;27.35;61.40;100803.80;1725283;82;21105;-57
2021/07/02 08:15:56;;;;;;;9.15;2.20;;;;;;;27.34;61.88;100808.81;1708575;82;21078;-58
2021/07/02 08:18:24;;;;;;;5.47;2.67;;;;;;;27.31;61.82;100829.93;1711124;82;20987;-55
2021/07/02 08:20:51;;;;;;;5.97;3.27;;;;;;;27.31;61.82;100829.93;1716697;82;21026;-56
2021/07/02 08:23:18;;;;;;;8.33;4.20;;;;;;;27.34;62.17;100835.05;1705938;82;21053;-57
2021/07/02 08:25:45;;;;;;;6.47;3.55;;;;;;;27.34;62.17;100835.05;1729338;82;21021;-59
2021/07/02 08:30:57;;;;;;;9.53;7.30;;;;;;;27.38;62.19;100841.80;1699672;83;21486;-57
2021/07/02 08:33:23;;;;;;;12.45;7.55;;;;;;;27.42;62.20;100842.36;1649978;84;21035;-58
2021/07/02 08:35:51;;;;;;;13.53;8.33;;;;;;;27.47;62.62;100840.61;1653719;85;21560;-59
2021/07/02 08:38:18;;;;;;;15.93;11.00;;;;;;;27.50;62.82;100847.00;1671876;84;21552;-58
2021/07/02 08:40:45;;;;;;;6.55;5.25;;;;;;;27.54;63.26;100845.73;1694133;83;21052;-57
2021/07/02 08:43:12;;;;;;;9.38;4.60;;;;;;;27.58;63.16;100843.14;1700508;83;21019;-55
2021/07/02 08:45:39;;;;;;;6.17;4.03;;;;;;;27.61;63.16;100837.04;1718244;82;21539;-56
2021/07/02 08:48:07;;;;;;;3.47;2.42;;;;;;;27.65;63.19;100841.13;1715838;82;20983;-58
2021/07/02 08:50:35;;;;;;;5.95;2.37;;;;;;;27.65;62.59;100834.44;1721693;82;21010;-57
2021/07/02 08:53:05;;;;;;;3.50;2.67;;;;;;;27.68;62.27;100830.61;1727544;81;21072;-55
2021/07/02 08:55:33;;;;;;;3.50;2.55;;;;;;;27.72;62.48;100834.21;1711355;82;21015;-57
2021/07/02 08:58:00;;;;;;;5.72;3.30;;;;;;;27.77;62.61;100829.78;1713936;82;22190;-56
2021/07/02 09:00:27;;;;;;;2.95;2.40;;;;;;;27.82;62.33;100834.23;1727473;81;21034;-58
2021/07/02 09:02:55;;;;;;;4.00;2.77;;;;;;;27.83;62.03;100842.09;1687470;83;21546;-56
2021/07/02 09:08:00;;;;;;;4.58;3.12;;;;;;;27.95;61.78;100845.45;1687191;83;21101;-58
2021/07/02 09:10:35;;;;;;;2.98;2.52;;;;;;;27.98;61.58;100850.09;1672712;85;21048;-59
2021/07/02 09:13:03;;;;;;;9.28;3.58;;;;;;;28.03;61.42;100844.28;1664266;85;21078;-58
2021/07/02 09:15:30;;;;;;;5.58;3.10;;;;;;;28.08;61.22;100849.58;1657941;85;21034;-57
2021/07/02 09:17:59;;;;;;;7.30;4.28;;;;;;;28.12;61.16;100850.98;1660316;84;21060;-57
2021/07/02 09:23:06;;;;;;;5.45;3.65;;;;;;;28.24;61.53;100838.27;1598163;86;21560;-57
2021/07/02 09:25:51;;;;;;;4.62;3.85;;;;;;;28.24;61.53;100838.27;1545879;90;21123;-57
2021/07/02 09:28:19;;;;;;;5.00;3.65;;;;;;;28.30;61.31;100833.68;1544557;92;21092;-55
2021/07/02 09:30:50;;;;;;;5.62;3.70;;;;;;;28.38;60.94;100832.45;1545103;91;21098;-56
2021/07/02 09:33:22;;;;;;;4.75;3.80;;;;;;;28.46;60.70;100830.41;1485999;94;21597;-55
2021/07/02 09:35:52;;;;;;;5.87;3.70;;;;;;;28.56;61.09;100828.09;1479003;95;21091;-55
2021/07/02 09:38:37;;;;;;;6.72;4.42;;;;;;;28.64;60.73;100824.18;1494967;95;21089;-56
2021/07/02 09:41:08;;;;;;;5.92;4.30;;;;;;;28.71;61.37;100815.89;1494169;94;21623;-55
2021/07/02 09:43:39;;;;;;;6.00;4.58;;;;;;;28.79;61.40;100815.98;1504749;93;21141;-56
2021/07/02 09:46:07;;;;;;;6.72;4.55;;;;;;;28.87;61.05;100820.10;1494806;93;21145;-60
2021/07/02 09:48:45;;;;;;;5.35;4.12;;;;;;;28.92;60.87;100809.80;1507538;94;21101;-55
2021/07/02 09:51:13;;;;;;;16.90;15.28;;;;;;;28.98;59.71;100818.58;1483742;95;21570;-56
2021/07/02 09:53:41;;;;;;;12.90;11.30;;;;;;;28.99;59.45;100814.06;1506175;94;21260;-56
2021/07/02 09:56:18;;;;;;;7.40;5.83;;;;;;;29.07;60.30;100811.97;1494473;94;21100;-55
2021/07/02 09:58:45;;;;;;;6.67;4.62;;;;;;;29.17;60.56;100803.41;1518975;93;21190;-58
2021/07/02 10:01:24;;;;;;;6.03;3.22;;;;;;;29.27;60.05;100804.17;1504836;93;21065;-55
2021/07/02 10:03:52;;;;;;;5.15;3.12;;;;;;;29.37;59.93;100807.63;1494164;93;21081;-58
2021/07/02 10:06:21;;;;;;;23.55;19.77;;;;;;;29.51;59.15;100801.23;1500887;93;21077;-61
2021/07/02 10:08:49;;;;;;;7.60;6.25;;;;;;;29.61;59.29;100797.97;1483409;95;21100;-56
2021/07/02 10:11:17;;;;;;;6.20;4.42;;;;;;;29.74;58.81;100805.67;1480309;94;21199;-57
2021/07/02 10:13:49;;;;;;;15.00;11.55;;;;;;;29.84;58.13;100813.16;1489158;93;21142;-60
2021/07/02 10:16:16;;;;;;;10.05;9.03;;;;;;;29.94;57.74;100817.08;1504386;93;21070;-56
2021/07/02 10:18:49;;;;;;;9.45;6.50;;;;;;;30.02;57.46;100826.04;1501817;94;21079;-57
2021/07/02 10:21:18;;;;;;;5.92;4.12;;;;;;;30.10;57.24;100834.64;1513009;92;21038;-62
2021/07/02 10:23:48;;;;;;;;;;;;;;;30.15;56.44;100825.11;1532405;91;21171;-56
2021/07/02 10:26:16;;;;;;;6.90;3.00;;;;;;;30.19;56.15;100823.80;1559178;87;20114;-56
2021/07/02 10:28:44;;;;;;;7.45;4.12;;;;;;;30.24;55.97;100809.41;1608948;87;21079;-59
2021/07/02 10:31:11;;;;;;;4.62;3.85;;;;;;;30.26;56.20;100801.19;1672839;84;21071;-57
2021/07/02 10:33:42;;;;;;;4.90;3.20;;;;;;;30.30;56.17;100804.78;1687431;83;21017;-60
2021/07/02 10:36:11;;;;;;;4.22;3.00;;;;;;;30.32;55.90;100801.44;1652234;85;21632;-57
2021/07/02 10:38:45;;;;;;;4.60;3.00;;;;;;;30.36;55.62;100800.12;1637502;86;21046;-64
2021/07/02 10:41:18;;;;;;;7.95;4.15;;;;;;;30.40;55.96;100806.85;1652413;85;21040;-57
2021/07/02 10:44:10;;;;;;;6.65;3.33;;;;;;;30.45;55.77;100812.60;1628631;85;21102;-56
2021/07/02 10:46:41;;;;;;;9.23;4.35;;;;;;;30.51;55.76;100814.65;1628789;86;21084;-58
2021/07/02 10:49:11;;;;;;;5.10;3.72;;;;;;;30.60;55.84;100812.00;1607351;87;21125;-62
2021/07/02 10:51:50;;;;;;;5.30;3.35;;;;;;;30.66;55.59;100812.70;1660983;84;21086;-56
2021/07/02 10:54:23;;;;;;;6.53;3.42;;;;;;;30.69;54.75;100809.18;1652573;85;21060;-58
2021/07/02 10:57:03;;;;;;;5.33;3.30;;;;;;;30.71;54.80;100805.02;1605248;87;21528;-57
2021/07/02 10:59:41;;;;;;;5.80;3.40;;;;;;;30.68;54.71;100794.58;1612398;87;21132;-60
2021/07/02 11:02:21;;;;;;;10.70;9.08;;;;;;;30.69;54.51;100800.27;1554727;90;21094;-58
2021/07/02 11:04:52;;;;;;;14.53;12.87;;;;;;;30.64;54.83;100794.56;1567940;89;21097;-56
2021/07/02 11:07:23;;;;;;;;;;;;;;;30.58;55.51;100803.27;1598328;88;21100;-61
2021/07/02 11:09:57;;;;;;;7.58;4.47;;;;;;;30.58;55.80;100807.29;1605140;88;20228;-56
2021/07/02 11:12:32;;;;;;;6.35;3.58;;;;;;;30.58;55.71;100809.98;1588060;88;21091;-61
2021/07/02 11:15:07;;;;;;;6.20;3.40;;;;;;;30.56;55.84;100810.64;1616764;86;21013;-57
2021/07/02 11:17:43;;;;;;;3.95;3.30;;;;;;;30.52;55.95;100820.87;1617759;87;21229;-59
2021/07/02 11:20:24;;;;;;;9.85;3.55;;;;;;;30.50;56.05;100834.43;1581825;89;21651;-58
2021/07/02 11:23:04;;;;;;;5.50;3.70;;;;;;;30.46;56.23;100831.72;1539248;91;22498;-56
2021/07/02 11:28:20;;;;;;;8.60;5.40;;;;;;;30.36;56.63;100814.89;1795071;78;26574;-49
2021/07/02 11:30:48;;;;;;;9.15;8.18;;;;;;;30.36;56.46;100817.57;1767088;80;20991;-49
2021/07/02 11:33:21;;;;;;;8.85;6.37;;;;;;;30.38;56.60;100822.28;1763187;80;20995;-50
2021/07/02 11:36:06;;;;;;;7.22;5.67;;;;;;;30.40;56.54;100821.62;1741452;81;21497;-49
2021/07/02 11:38:46;;;;;;;5.40;3.90;;;;;;;30.41;56.37;100819.30;1745900;80;21139;-49
2021/07/02 11:41:23;;;;;;;12.18;6.22;;;;;;;30.42;56.25;100818.28;1749121;80;21070;-50